Time;durP1;ratioP1;P1;durP2;ratioP2;P2;SDS_P1;SDS_P2;PMS_P1;PMS_P2;Temp;Humidity;BMP_temperature;BMP_pressure;BME280_temperature;BME280_humidity;BME280_pressure;Samples;Min_cycle;Max_cycle;Signal;HPM_P1;HPM_P2
2021/12/29 00:02:03;;;;;;;;;1.75;1.75;;;;;10.36;70.05;99966.88;5017958;28;45496;-80
2021/12/29 00:04:28;;;;;;;;;3.50;1.50;;;;;10.35;70.27;99973.06;5018894;28;45501;-80
2021/12/29 00:06:57;;;;;;;;;3.75;1.75;;;;;10.28;70.29;99969.72;5036005;28;45507;-80
2021/12/29 00:09:23;;;;;;;;;6.00;2.00;;;;;10.31;70.57;99977.53;5036776;28;45526;-79
2021/12/29 00:11:49;;;;;;;;;1.75;0.50;;;;;10.30;70.68;99981.94;5031468;28;45679;-81
2021/12/29 00:14:14;;;;;;;;;4.00;1.00;;;;;10.29;70.68;99988.16;5051340;28;45427;-78
2021/12/29 00:16:39;;;;;;;;;3.00;1.50;;;;;10.27;71.16;99981.16;5021406;28;45336;-79
2021/12/29 00:19:06;;;;;;;;;2.00;0.00;;;;;10.31;71.04;99993.41;5017283;28;45385;-79
2021/12/29 00:21:33;;;;;;;;;6.25;1.00;;;;;10.29;71.07;99984.63;5034890;28;46242;-80
2021/12/29 00:24:00;;;;;;;;;3.25;1.00;;;;;10.30;71.49;99999.56;5047717;28;45509;-79
2021/12/29 00:26:27;;;;;;;;;3.00;2.00;;;;;10.30;71.73;100033.91;5040313;28;45346;-77
2021/12/29 00:28:53;;;;;;;;;5.00;0.50;;;;;10.28;71.69;100028.69;5047908;28;45331;-79
2021/12/29 00:31:19;;;;;;;;;2.00;0.00;;;;;10.30;71.93;100034.78;5026178;28;45510;-79
2021/12/29 00:33:45;;;;;;;;;3.00;1.00;;;;;10.26;72.07;100030.50;5014569;28;45498;-78
2021/12/29 00:36:10;;;;;;;;;3.00;0.75;;;;;10.27;72.47;100039.28;5035980;28;45469;-78
2021/12/29 00:38:36;;;;;;;;;1.50;1.50;;;;;10.29;72.63;100048.91;5056307;28;45437;-79
2021/12/29 00:41:02;;;;;;;;;2.00;1.50;;;;;10.27;72.87;100041.91;5045837;28;46457;-78
2021/12/29 00:43:27;;;;;;;;;5.75;2.50;;;;;10.25;73.17;100049.88;5034370;28;45515;-78
2021/12/29 00:45:53;;;;;;;;;4.25;1.00;;;;;10.27;73.26;100055.13;5029584;28;45516;-79
2021/12/29 00:48:19;;;;;;;;;4.50;0.25;;;;;10.27;73.37;100060.41;5034417;28;45422;-78
2021/12/29 00:50:46;;;;;;;;;0.75;0.75;;;;;10.26;73.30;100051.63;5033385;28;46094;-78
2021/12/29 00:53:11;;;;;;;;;5.50;0.50;;;;;10.28;73.33;100056.88;5056629;28;45499;-79
2021/12/29 00:55:38;;;;;;;;;1.50;1.00;;;;;10.29;73.45;100062.13;5049825;28;45432;-78
2021/12/29 00:58:07;;;;;;;;;0.75;0.00;;;;;10.28;73.69;100063.00;5053896;28;45473;-78
2021/12/29 01:00:36;;;;;;;;;1.00;1.00;;;;;10.27;73.99;100061.25;5053707;28;46017;-80
2021/12/29 01:03:03;;;;;;;;;5.75;3.25;;;;;10.25;73.66;100047.25;5014613;28;45556;-79
2021/12/29 01:05:28;;;;;;;;;7.00;2.50;;;;;10.27;73.74;100055.13;5020782;28;45627;-79
2021/12/29 01:07:53;;;;;;;;;3.00;1.00;;;;;10.27;73.78;100047.19;5042529;28;45304;-79
2021/12/29 01:10:19;;;;;;;;;4.50;0.00;;;;;10.29;73.80;100059.47;5048514;28;46087;-78
2021/12/29 01:12:52;;;;;;;;;1.25;1.25;;;;;10.29;73.97;100058.59;5042918;28;45307;-78
2021/12/29 01:15:24;;;;;;;;;4.00;2.50;;;;;10.30;74.00;100065.63;5054561;28;45334;-79
2021/12/29 01:17:50;;;;;;;;;3.50;0.00;;;;;10.30;73.93;100073.53;5034121;28;45575;-78
2021/12/29 01:20:16;;;;;;;;;7.25;2.50;;;;;10.27;73.90;100065.69;5031476;28;46271;-78
2021/12/29 01:22:41;;;;;;;;;4.00;1.00;;;;;10.27;74.30;100070.97;5059521;28;45806;-79
2021/12/29 01:25:07;;;;;;;;;4.75;2.00;;;;;10.30;74.05;100077.03;5054122;28;45424;-78
2021/12/29 01:27:34;;;;;;;;;3.75;1.00;;;;;10.28;74.13;100078.84;5053582;28;45357;-79
2021/12/29 01:29:59;;;;;;;;;8.00;3.50;;;;;10.26;73.87;100064.84;5054022;28;45474;-79
2021/12/29 01:32:25;;;;;;;;;2.75;1.50;;;;;10.30;74.12;100065.63;5023581;28;45397;-79
2021/12/29 01:34:50;;;;;;;;;4.25;2.00;;;;;10.27;74.39;100070.97;5013254;28;45706;-78
2021/12/29 01:37:17;;;;;;;;;2.50;1.25;;;;;10.29;74.26;100069.16;5035354;28;45428;-78
2021/12/29 01:39:43;;;;;;;;;6.75;1.75;;;;;10.32;74.13;100063.78;5042026;28;45477;-78
2021/12/29 01:42:08;;;;;;;;;8.25;2.00;;;;;10.31;74.39;100073.50;5050175;28;45480;-80
2021/12/29 01:44:34;;;;;;;;;1.00;0.75;;;;;10.35;74.35;100066.38;5030459;28;45448;-79
2021/12/29 01:47:00;;;;;;;;;1.50;1.00;;;;;10.36;74.47;100075.19;5031753;28;45527;-78
2021/12/29 01:49:26;;;;;;;;;6.50;5.00;;;;;10.33;74.29;100070.84;5030034;28;45530;-79
2021/12/29 01:52:02;;;;;;;;;2.25;1.75;;;;;10.34;74.24;100069.94;5030490;28;45405;-79
2021/12/29 01:54:34;;;;;;;;;5.75;1.00;;;;;10.32;74.42;100069.94;5059692;28;45574;-78
2021/12/29 01:57:00;;;;;;;;;0.25;0.25;;;;;10.32;74.58;100077.00;5055196;28;45588;-79
2021/12/29 01:59:27;;;;;;;;;1.25;1.00;;;;;10.36;74.41;100091.91;5057496;28;45424;-78
2021/12/29 02:01:53;;;;;;;;;4.00;1.00;;;;;10.38;74.34;100087.41;5046526;28;45549;-78
2021/12/29 02:04:19;;;;;;;;;1.25;1.25;;;;;10.35;74.52;100079.59;5032925;28;45278;-78
2021/12/29 02:06:46;;;;;;;;;3.00;1.25;;;;;10.38;74.54;100095.34;5040795;28;45419;-79
2021/12/29 02:09:11;;;;;;;;;1.00;1.00;;;;;10.37;74.50;100092.75;5036834;28;46535;-78
2021/12/29 02:11:37;;;;;;;;;0.50;0.50;;;;;10.36;74.71;100099.81;5042767;28;45512;-78
2021/12/29 02:14:06;;;;;;;;;0.50;0.50;;;;;10.38;74.46;100099.78;5055954;28;45479;-79
2021/12/29 02:16:31;;;;;;;;;6.50;2.00;;;;;10.37;74.61;100093.63;5040282;28;45398;-78
2021/12/29 02:19:01;;;;;;;;;2.00;2.00;;;;;10.36;74.29;100086.59;5015307;28;45387;-79
2021/12/29 02:21:28;;;;;;;;;5.00;3.50;;;;;10.39;74.54;100097.09;5050817;28;45537;-78
2021/12/29 02:26:31;;;;;;;;;4.00;3.50;;;;;10.39;74.65;100089.16;5049020;28;46534;-78
2021/12/29 02:28:56;;;;;;;;;1.25;1.25;;;;;10.40;74.44;100090.91;5055997;28;45407;-79
2021/12/29 02:31:23;;;;;;;;;1.50;0.50;;;;;10.33;74.09;100076.13;5043634;28;45413;-78
2021/12/29 02:33:49;;;;;;;;;1.25;1.25;;;;;10.38;74.18;100081.28;5019542;28;45389;-78
2021/12/29 02:36:17;;;;;;;;;2.25;1.00;;;;;10.41;74.29;100095.28;5034402;28;45549;-79
2021/12/29 02:38:47;;;;;;;;;1.00;0.50;;;;;10.39;74.68;100091.81;5050577;28;46018;-79
2021/12/29 02:41:14;;;;;;;;;3.25;1.75;;;;;10.44;74.42;100095.19;5044452;28;45555;-79
2021/12/29 02:43:40;;;;;;;;;1.75;1.00;;;;;10.41;74.40;100089.97;5055645;28;45287;-79
2021/12/29 02:46:11;;;;;;;;;0.75;0.75;;;;;10.45;74.39;100086.34;5055471;28;45424;-79
2021/12/29 02:48:47;;;;;;;;;3.00;1.00;;;;;10.47;74.38;100081.88;5049526;28;47492;-79
2021/12/29 02:51:13;;;;;;;;;1.00;1.00;;;;;10.44;74.29;100068.75;5028649;28;45430;-77
2021/12/29 02:53:38;;;;;;;;;3.00;0.75;;;;;10.46;74.29;100072.25;5045191;28;45460;-80
2021/12/29 02:56:04;;;;;;;;;2.50;1.50;;;;;10.48;74.27;100075.69;5049273;28;45678;-79
2021/12/29 02:58:31;;;;;;;;;0.75;0.75;;;;;10.48;74.32;100075.69;5039872;28;46731;-78
2021/12/29 03:00:58;;;;;;;;;1.00;0.75;;;;;10.48;74.21;100075.69;5032910;28;45770;-79
2021/12/29 03:03:26;;;;;;;;;3.25;2.00;;;;;10.49;74.16;100080.09;5037874;28;45466;-79
2021/12/29 03:05:53;;;;;;;;;1.00;0.25;;;;;10.49;74.43;100077.44;5034307;28;45409;-78
2021/12/29 03:08:20;;;;;;;;;2.00;1.00;;;;;10.51;74.44;100076.53;5013178;28;1154823;-79
2021/12/29 03:10:47;;;;;;;;;3.50;1.50;;;;;10.53;74.59;100082.66;5049853;28;45338;-79
2021/12/29 03:13:13;;;;;;;;;2.00;0.00;;;;;10.52;74.43;100075.63;5032274;28;45500;-77
2021/12/29 03:15:40;;;;;;;;;1.25;0.00;;;;;10.52;74.58;100075.63;5015614;28;45377;-79
2021/12/29 03:18:06;;;;;;;;;2.50;1.25;;;;;10.52;74.92;100086.19;5035294;28;45415;-78
2021/12/29 03:20:32;;;;;;;;;0.75;0.50;;;;;10.50;74.66;100073.03;5038129;28;45458;-78
2021/12/29 03:22:59;;;;;;;;;1.00;1.00;;;;;10.51;75.14;100073.88;5051993;28;45438;-78
2021/12/29 03:25:25;;;;;;;;;3.25;1.25;;;;;10.47;75.10;100067.81;5055651;28;45536;-78
2021/12/29 03:27:51;;;;;;;;;1.50;1.50;;;;;10.51;75.26;100079.16;5031492;28;45445;-78
2021/12/29 03:30:17;;;;;;;;;1.00;1.00;;;;;10.46;75.39;100072.25;5035214;28;45346;-79
2021/12/29 03:32:50;;;;;;;;;3.00;0.50;;;;;10.48;75.75;100088.91;5035627;28;45458;-79
2021/12/29 03:35:15;;;;;;;;;0.75;0.75;;;;;10.49;76.26;100087.13;5027962;28;45600;-79
2021/12/29 03:37:41;;;;;;;;;2.00;1.00;;;;;10.46;76.01;100088.09;5043470;28;45927;-78
2021/12/29 03:40:07;;;;;;;;;1.50;1.50;;;;;10.46;76.07;100088.09;5053546;28;45474;-78
2021/12/29 03:42:34;;;;;;;;;3.50;1.00;;;;;10.48;76.34;100074.84;5043987;28;45574;-78
2021/12/29 03:44:59;;;;;;;;;2.00;2.00;;;;;10.46;76.42;100074.00;5048012;28;45373;-77
2021/12/29 03:47:25;;;;;;;;;1.25;1.00;;;;;10.43;76.65;100082.91;5035083;28;45892;-79
2021/12/29 03:49:50;;;;;;;;;0.75;0.75;;;;;10.46;76.65;100077.53;5024106;28;45515;-76
2021/12/29 03:52:15;;;;;;;;;1.00;0.75;;;;;10.44;76.59;100070.53;5048983;28;45495;-77
2021/12/29 03:54:41;;;;;;;;;2.00;1.00;;;;;10.46;76.51;100079.28;5054976;28;45399;-77
2021/12/29 03:57:06;;;;;;;;;1.25;0.25;;;;;10.45;76.72;100065.22;5043578;28;45458;-76
2021/12/29 03:59:33;;;;;;;;;2.00;2.00;;;;;10.43;76.71;100064.41;5020062;28;45363;-77
2021/12/29 04:02:00;;;;;;;;;7.00;2.00;;;;;10.42;76.83;100065.31;5016412;28;45493;-76
2021/12/29 04:04:26;;;;;;;;;0.25;0.25;;;;;10.42;76.86;100065.31;5016600;28;45369;-76
2021/12/29 04:06:51;;;;;;;;;3.00;1.75;;;;;10.43;77.04;100060.88;5042009;28;46153;-75
2021/12/29 04:09:17;;;;;;;;;3.00;1.75;;;;;10.39;77.17;100048.69;5054271;28;45467;-75
2021/12/29 04:11:42;;;;;;;;;3.25;1.00;;;;;10.42;77.15;100057.38;5040748;28;45514;-75
2021/12/29 04:14:08;;;;;;;;;0.00;0.00;;;;;10.42;77.20;100065.31;5031695;28;45468;-77
2021/12/29 04:16:37;;;;;;;;;1.00;1.00;;;;;10.42;77.42;100060.03;5014048;28;45431;-76
2021/12/29 04:19:14;;;;;;;;;1.00;1.00;;;;;10.42;77.47;100067.94;5014627;28;45468;-77
2021/12/29 04:21:42;;;;;;;;;0.00;0.00;;;;;10.42;77.81;100082.94;5043114;28;45524;-77
2021/12/29 04:24:08;;;;;;;;;4.75;1.00;;;;;10.40;78.15;100075.06;5054785;28;45650;-76
2021/12/29 04:26:36;;;;;;;;;1.00;0.00;;;;;10.30;78.78;100063.81;5042984;28;46183;-76
2021/12/29 04:29:07;;;;;;;;;2.75;2.25;;;;;10.34;78.52;100071.69;5030973;28;45558;-77
2021/12/29 04:31:32;;;;;;;;;3.50;1.00;;;;;10.36;79.17;100076.03;5030646;28;45381;-76
2021/12/29 04:33:58;;;;;;;;;1.00;0.00;;;;;10.35;79.32;100071.66;5014934;28;45658;-77
2021/12/29 04:36:26;;;;;;;;;0.00;0.00;;;;;10.36;79.86;100080.47;5026261;28;46210;-76
2021/12/29 04:38:54;;;;;;;;;0.50;0.50;;;;;10.28;79.91;100073.56;5033919;28;45561;-75
2021/12/29 04:41:21;;;;;;;;;1.00;1.00;;;;;10.26;80.31;100069.22;5033120;28;45436;-77
2021/12/29 04:43:46;;;;;;;;;0.00;0.00;;;;;10.27;80.64;100070.97;5054121;28;45600;-76
2021/12/29 04:46:17;;;;;;;;;1.00;0.75;;;;;10.27;81.31;100073.63;5021008;28;45966;-77
2021/12/29 04:48:51;;;;;;;;;1.00;0.75;;;;;10.22;81.50;100060.53;5014320;28;45343;-77
2021/12/29 04:51:24;;;;;;;;;1.00;0.00;;;;;10.26;81.56;100062.19;5030840;28;45829;-76
2021/12/29 04:53:50;;;;;;;;;0.00;0.00;;;;;10.20;81.85;100056.19;5052266;28;45419;-76
2021/12/29 04:56:16;;;;;;;;;0.50;0.00;;;;;10.20;82.07;100049.13;5042604;28;45559;-76
2021/12/29 04:58:42;;;;;;;;;0.00;0.00;;;;;10.25;82.00;100064.88;5030331;28;45339;-75
2021/12/29 05:01:08;;;;;;;;;0.00;0.00;;;;;10.25;82.36;100062.25;5032186;28;45342;-76
2021/12/29 05:03:36;;;;;;;;;0.00;0.00;;;;;10.24;82.28;100049.94;5035183;28;45451;-77
2021/12/29 05:08:30;;;;;;;;;0.00;0.00;;;;;10.17;82.32;100048.34;5021312;28;45489;-76
2021/12/29 05:10:57;;;;;;;;;0.50;0.50;;;;;10.16;82.92;100046.59;5048061;28;45555;-77
2021/12/29 05:13:24;;;;;;;;;0.25;0.00;;;;;10.12;82.99;100040.56;5023369;28;45411;-76
2021/12/29 05:15:50;;;;;;;;;0.00;0.00;;;;;10.07;83.12;100039.81;5013911;28;46212;-76
2021/12/29 05:18:15;;;;;;;;;1.00;1.00;;;;;10.02;83.98;100039.06;5013672;28;45489;-76
2021/12/29 05:20:40;;;;;;;;;1.00;1.00;;;;;10.00;84.17;100033.81;5026815;28;45348;-76
2021/12/29 05:23:06;;;;;;;;;1.25;0.75;;;;;10.00;84.26;100035.59;5031231;28;45535;-77
2021/12/29 05:25:32;;;;;;;;;0.50;0.50;;;;;9.93;85.06;100024.34;5029818;28;45402;-77
2021/12/29 05:27:57;;;;;;;;;2.00;1.00;;;;;9.91;84.75;100019.06;5042009;28;45654;-77
2021/12/29 05:30:23;;;;;;;;;4.75;3.00;;;;;9.88;85.16;100020.94;5034782;28;45361;-77
2021/12/29 05:32:49;;;;;;;;;2.00;0.25;;;;;9.85;85.35;100024.50;5016264;28;45362;-76
2021/12/29 05:35:14;;;;;;;;;0.00;0.00;;;;;9.81;85.78;100024.63;5023024;28;45478;-77
2021/12/29 05:37:40;;;;;;;;;0.75;0.75;;;;;9.75;86.47;100015.97;5038236;28;45553;-76
2021/12/29 05:40:07;;;;;;;;;2.50;2.00;;;;;9.74;86.53;100014.22;5043080;28;45387;-76
2021/12/29 05:42:36;;;;;;;;;2.75;0.00;;;;;9.76;86.53;100011.56;5033313;28;45442;-76
2021/12/29 05:45:07;;;;;;;;;3.75;1.50;;;;;9.69;86.44;100010.84;5035250;28;46148;-76
2021/12/29 05:47:32;;;;;;;;;0.00;0.00;;;;;9.69;87.02;100018.78;5036742;28;45410;-76
2021/12/29 05:49:58;;;;;;;;;1.00;1.00;;;;;9.65;87.38;100017.09;5032337;28;45482;-76
2021/12/29 05:52:23;;;;;;;;;2.50;2.50;;;;;9.64;87.38;100001.31;5047117;28;45541;-77
2021/12/29 05:54:48;;;;;;;;;1.00;1.00;;;;;9.60;87.75;99996.13;5048313;28;46306;-76
2021/12/29 05:57:14;;;;;;;;;0.50;0.50;;;;;9.64;87.75;99996.03;5054725;28;45521;-77
2021/12/29 05:59:39;;;;;;;;;0.75;0.75;;;;;9.63;87.94;100000.47;5044064;28;45441;-76
2021/12/29 06:02:05;;;;;;;;;1.50;1.00;;;;;9.63;88.08;99995.19;5019844;28;45620;-76
2021/12/29 06:04:30;;;;;;;;;0.00;0.00;;;;;9.64;88.03;100001.31;5017872;28;46998;-77
2021/12/29 06:06:56;;;;;;;;;2.25;1.00;;;;;9.63;88.35;100003.09;5040496;28;45271;-76
2021/12/29 06:09:21;;;;;;;;;1.00;1.00;;;;;9.64;87.54;99996.94;5047838;28;45422;-77
2021/12/29 06:11:46;;;;;;;;;1.25;1.00;;;;;9.59;88.13;99986.47;5047740;28;45689;-76
2021/12/29 06:14:12;;;;;;;;;2.75;0.00;;;;;9.57;88.31;99990.06;5040497;28;46121;-76
2021/12/29 06:16:38;;;;;;;;;2.00;1.00;;;;;9.59;88.60;99988.25;5016422;28;45583;-76
2021/12/29 06:19:03;;;;;;;;;3.25;1.25;;;;;9.55;88.98;99992.75;5032425;28;45429;-76
2021/12/29 06:21:29;;;;;;;;;7.00;1.25;;;;;9.58;88.82;99994.41;5028164;28;45576;-77
2021/12/29 06:23:54;;;;;;;;;1.00;1.00;;;;;9.58;88.68;100003.22;5054810;28;47249;-77
2021/12/29 06:26:20;;;;;;;;;2.00;2.00;;;;;9.59;89.60;99998.78;5056135;28;45572;-76
2021/12/29 06:28:46;;;;;;;;;3.00;3.00;;;;;9.56;89.52;100009.44;5040588;28;45597;-75
2021/12/29 06:31:12;;;;;;;;;1.75;1.00;;;;;9.57;89.43;100000.63;5037140;28;45523;-77
2021/12/29 06:33:38;;;;;;;;;2.50;1.00;;;;;9.54;89.94;99998.06;5038092;28;46230;-76
2021/12/29 06:36:03;;;;;;;;;0.75;0.75;;;;;9.54;89.92;100008.59;5035618;28;45489;-77
2021/12/29 06:38:29;;;;;;;;;4.00;1.75;;;;;9.51;89.85;100006.03;5054304;28;45545;-76
2021/12/29 06:40:54;;;;;;;;;0.25;0.25;;;;;9.52;89.97;99997.22;5038407;28;45547;-76
2021/12/29 06:43:19;;;;;;;;;2.00;1.00;;;;;9.54;90.36;100003.34;5035502;28;46605;-76
2021/12/29 06:45:45;;;;;;;;;1.00;1.00;;;;;9.54;89.93;100006.81;5031015;28;45403;-77
2021/12/29 06:48:10;;;;;;;;;1.75;0.75;;;;;9.45;90.02;99982.47;5036587;28;45365;-78
2021/12/29 06:50:36;;;;;;;;;2.50;2.50;;;;;9.56;90.37;100009.44;5034771;28;45383;-77
2021/12/29 06:53:02;;;;;;;;;1.00;1.00;;;;;9.53;90.73;99996.31;5040956;28;45448;-77
2021/12/29 06:55:27;;;;;;;;;2.25;1.00;;;;;9.55;90.74;100011.22;5046687;28;45456;-76
2021/12/29 06:57:53;;;;;;;;;3.25;3.25;;;;;9.52;90.57;100003.38;5035490;28;45516;-77
2021/12/29 07:00:19;;;;;;;;;1.75;1.00;;;;;9.54;90.02;100000.69;5036217;28;45547;-76
2021/12/29 07:02:45;;;;;;;;;5.50;2.50;;;;;9.56;90.51;100002.38;5038204;28;45504;-77
2021/12/29 07:05:10;;;;;;;;;1.75;0.00;;;;;9.57;90.39;100000.63;5035237;28;45659;-76
2021/12/29 07:07:36;;;;;;;;;3.75;3.00;;;;;9.57;90.73;99995.34;5036822;28;45585;-76
2021/12/29 07:10:02;;;;;;;;;0.50;0.00;;;;;9.59;90.85;100001.44;5035357;28;45516;-77
2021/12/29 07:12:28;;;;;;;;;1.25;1.00;;;;;9.54;90.80;99995.41;5030254;28;46290;-76
2021/12/29 07:14:53;;;;;;;;;0.00;0.00;;;;;9.55;90.52;100002.41;5034314;28;45338;-76
2021/12/29 07:17:19;;;;;;;;;3.75;2.50;;;;;9.55;91.37;99992.75;5015687;28;45464;-76
2021/12/29 07:19:45;;;;;;;;;6.50;4.00;;;;;9.55;90.89;100007.69;5016603;28;45603;-75
2021/12/29 07:22:10;;;;;;;;;4.25;2.00;;;;;9.53;90.98;99993.69;5041170;28;46192;-76
2021/12/29 07:24:36;;;;;;;;;3.75;3.75;;;;;9.55;91.70;99997.13;5040785;28;45354;-78
2021/12/29 07:27:02;;;;;;;;;1.00;1.00;;;;;9.57;91.90;100004.13;5038820;28;45350;-77
2021/12/29 07:29:27;;;;;;;;;3.00;1.00;;;;;9.58;91.88;100005.84;5038343;28;45309;-79
2021/12/29 07:31:53;;;;;;;;;6.25;3.25;;;;;9.60;91.58;100011.94;5054455;28;46937;-78
2021/12/29 07:34:22;;;;;;;;;0.50;0.50;;;;;9.58;92.13;100000.56;5051894;28;45475;-79
2021/12/29 07:36:48;;;;;;;;;0.00;0.00;;;;;9.60;92.13;100005.81;5041752;28;45425;-79
2021/12/29 07:39:14;;;;;;;;;1.00;1.00;;;;;9.60;91.88;99995.25;5036540;28;45410;-78
2021/12/29 07:41:40;;;;;;;;;0.25;0.00;;;;;9.61;92.58;100004.91;5041498;28;46272;-79
2021/12/29 07:44:08;;;;;;;;;2.00;0.75;;;;;9.62;91.61;99998.72;5035277;28;45407;-79
2021/12/29 07:46:34;;;;;;;;;0.00;0.00;;;;;9.60;92.08;100005.81;5036929;28;45394;-79
2021/12/29 07:49:03;;;;;;;;;3.50;2.50;;;;;9.64;92.31;100011.88;5036886;28;45302;-78
2021/12/29 07:51:29;;;;;;;;;2.75;1.00;;;;;9.65;92.56;100019.75;5014471;28;46504;-78
2021/12/29 07:53:55;;;;;;;;;2.50;2.50;;;;;9.64;92.39;100018.03;5016324;28;45549;-78
2021/12/29 07:56:22;;;;;;;;;1.50;1.00;;;;;9.67;92.38;100025.00;5050712;28;45442;-77
2021/12/29 07:58:48;;;;;;;;;1.75;1.00;;;;;9.67;92.25;100017.97;5028690;28;45259;-80
2021/12/29 08:01:13;;;;;;;;;4.00;2.00;;;;;9.69;92.19;100013.50;5033548;28;47054;-79
2021/12/29 08:03:39;;;;;;;;;6.50;3.00;;;;;9.70;92.12;100017.88;5036549;28;45530;-78
2021/12/29 08:06:05;;;;;;;;;5.00;1.00;;;;;9.72;92.08;100018.69;5036933;28;45445;-76
2021/12/29 08:08:30;;;;;;;;;1.00;1.00;;;;;9.74;92.43;100024.78;5016482;28;45487;-80
2021/12/29 08:10:56;;;;;;;;;5.00;2.50;;;;;9.73;91.99;100033.63;5019806;28;46160;-79
2021/12/29 08:13:22;;;;;;;;;4.75;2.25;;;;;9.76;92.33;100028.28;5035657;28;45403;-79
2021/12/29 08:15:48;;;;;;;;;3.50;3.50;;;;;9.81;92.71;100037.84;5035997;28;45500;-79
2021/12/29 08:18:13;;;;;;;;;3.00;3.00;;;;;9.83;92.41;100036.03;5035811;28;45340;-79
2021/12/29 08:20:39;;;;;;;;;5.00;3.00;;;;;9.82;92.43;100048.34;5021293;28;45485;-80
2021/12/29 08:23:06;;;;;;;;;4.50;3.00;;;;;9.84;92.25;100050.94;5037265;28;45381;-79
2021/12/29 08:25:32;;;;;;;;;5.25;3.50;;;;;9.82;92.54;100048.34;5037193;28;45516;-78
2021/12/29 08:27:57;;;;;;;;;2.75;2.75;;;;;9.85;92.75;100050.91;5035661;28;45323;-79
2021/12/29 08:30:23;;;;;;;;;4.00;4.00;;;;;9.87;92.64;100066.72;5032741;28;45382;-80
2021/12/29 08:32:49;;;;;;;;;4.00;1.00;;;;;9.85;92.07;100048.28;5039669;28;45599;-79
2021/12/29 08:35:14;;;;;;;;;3.50;2.75;;;;;9.88;92.60;100061.38;5047078;28;45421;-79
2021/12/29 08:37:40;;;;;;;;;2.25;2.25;;;;;9.93;92.23;100061.31;5030217;28;45620;-79
2021/12/29 08:40:07;;;;;;;;;4.50;3.25;;;;;9.90;92.47;100062.25;5043060;28;45420;-78
2021/12/29 08:42:34;;;;;;;;;7.00;3.25;;;;;9.94;92.24;100065.66;5051029;28;45914;-78
2021/12/29 08:45:00;;;;;;;;;1.00;1.00;;;;;9.94;92.12;100057.75;5030356;28;45398;-77
2021/12/29 08:47:25;;;;;;;;;2.50;2.50;;;;;9.95;92.80;100054.19;5025737;28;45349;-76
2021/12/29 08:49:50;;;;;;;;;4.00;3.00;;;;;9.99;92.59;100057.63;5025263;28;46387;-77
2021/12/29 08:52:16;;;;;;;;;6.25;3.75;;;;;10.01;92.68;100048.75;5025269;28;45480;-80
2021/12/29 08:54:41;;;;;;;;;1.25;1.25;;;;;10.05;92.80;100054.81;5037244;28;45467;-77
2021/12/29 08:57:07;;;;;;;;;7.25;2.00;;;;;10.04;92.82;100051.31;5036577;28;45326;-76
2021/12/29 08:59:33;;;;;;;;;8.00;4.00;;;;;10.11;92.75;100055.53;5034503;28;45346;-77
2021/12/29 09:02:01;;;;;;;;;6.25;3.00;;;;;10.11;92.98;100050.25;5028646;28;45514;-77
2021/12/29 09:04:26;;;;;;;;;2.25;2.25;;;;;10.16;93.13;100057.16;5045161;28;45369;-76
2021/12/29 09:06:52;;;;;;;;;4.50;2.25;;;;;10.22;93.19;100046.44;5053221;28;45529;-79
2021/12/29 09:09:20;;;;;;;;;2.50;2.50;;;;;10.26;93.09;100050.75;5045089;28;45518;-78
2021/12/29 09:11:46;;;;;;;;;3.00;2.00;;;;;10.30;92.91;100049.75;5050116;28;45964;-76
2021/12/29 09:14:11;;;;;;;;;2.00;1.00;;;;;10.32;92.83;100032.09;5043554;28;45439;-76
2021/12/29 09:16:37;;;;;;;;;1.75;1.00;;;;;10.43;92.96;100045.91;5035756;28;46302;-76
2021/12/29 09:19:04;;;;;;;;;4.75;1.50;;;;;10.48;92.89;100041.34;5038450;28;46292;-79
2021/12/29 09:21:31;;;;;;;;;1.00;1.00;;;;;10.51;93.06;100036.88;5038688;28;45588;-79
2021/12/29 09:23:57;;;;;;;;;2.00;2.00;;;;;10.52;92.70;100028.91;5043085;28;45536;-79
2021/12/29 09:26:22;;;;;;;;;0.75;0.75;;;;;10.61;92.75;100036.59;5042787;28;45586;-76
2021/12/29 09:28:49;;;;;;;;;0.75;0.75;;;;;10.64;92.97;100039.16;5051273;28;46096;-77
2021/12/29 09:31:16;;;;;;;;;4.50;1.75;;;;;10.74;92.94;100044.19;5037373;28;45325;-77
2021/12/29 09:33:43;;;;;;;;;1.00;1.00;;;;;10.72;93.01;100046.88;5043990;28;45446;-76
2021/12/29 09:36:08;;;;;;;;;1.75;1.50;;;;;10.86;92.91;100050.88;5043677;28;46006;-78
2021/12/29 09:38:36;;;;;;;;;4.00;2.00;;;;;10.90;92.85;100040.19;5037869;28;45480;-78
2021/12/29 09:41:05;;;;;;;;;2.25;2.25;;;;;10.98;92.76;100050.53;5039479;28;45599;-77
2021/12/29 09:43:31;;;;;;;;;5.00;2.00;;;;;10.97;92.61;100030.28;5048062;28;45500;-77
2021/12/29 09:45:56;;;;;;;;;2.75;0.50;;;;;11.07;92.31;100042.31;5041749;28;45508;-77
2021/12/29 09:48:22;;;;;;;;;1.00;1.00;;;;;11.12;92.54;100037.72;5052521;28;45958;-78
2021/12/29 09:50:48;;;;;;;;;4.00;2.25;;;;;11.15;92.17;100024.41;5036851;28;45546;-78
2021/12/29 09:53:15;;;;;;;;;2.00;2.00;;;;;11.18;92.23;100034.91;5042190;28;45579;-77
2021/12/29 09:55:44;;;;;;;;;4.00;3.50;;;;;11.22;92.04;100032.16;5036023;28;45497;-75
2021/12/29 09:58:09;;;;;;;;;4.00;4.00;;;;;11.19;92.44;100039.28;5048739;28;46333;-78
2021/12/29 10:00:41;;;;;;;;;5.00;4.00;;;;;11.23;92.39;100045.34;5037400;28;45547;-78
2021/12/29 10:03:10;;;;;;;;;3.50;1.75;;;;;11.28;92.27;100039.91;5036854;28;45466;-77
2021/12/29 10:05:38;;;;;;;;;6.00;4.50;;;;;11.30;92.18;100038.09;5041582;28;45473;-76
2021/12/29 10:08:11;;;;;;;;;4.00;4.00;;;;;11.32;92.20;100046.84;5047361;28;46311;-77
2021/12/29 10:10:42;;;;;;;;;1.25;1.25;;;;;11.37;92.16;100039.59;5042785;28;45428;-76
2021/12/29 10:13:09;;;;;;;;;2.00;2.00;;;;;11.43;92.15;100039.41;5045336;28;45439;-78
2021/12/29 10:15:40;;;;;;;;;4.00;4.00;;;;;11.45;92.34;100040.25;5036797;28;45514;-77
2021/12/29 10:18:11;;;;;;;;;9.00;5.00;;;;;11.49;92.64;100038.34;5033348;28;45660;-77
2021/12/29 10:20:56;;;;;;;;;10.00;4.00;;;;;11.54;92.70;100039.94;5037631;28;45503;-76
2021/12/29 10:23:23;;;;;;;;;7.75;4.25;;;;;11.59;92.43;100041.59;5038820;28;45446;-77
2021/12/29 10:25:51;;;;;;;;;4.00;4.00;;;;;11.59;92.48;100053.03;5034521;28;45680;-77
2021/12/29 10:28:28;;;;;;;;;4.50;4.00;;;;;11.61;92.58;100055.63;5035330;28;45496;-80
2021/12/29 10:30:59;;;;;;;;;3.50;2.50;;;;;11.57;93.19;100046.94;5036752;28;45465;-80
2021/12/29 10:33:29;;;;;;;;;5.00;5.00;;;;;11.63;92.96;100057.31;5049790;28;45587;-82
2021/12/29 10:35:55;;;;;;;;;1.75;1.75;;;;;11.67;92.88;100050.13;5037799;28;45458;-77
2021/12/29 10:38:24;;;;;;;;;3.00;3.00;;;;;11.72;93.24;100056.13;5045502;28;45589;-76
2021/12/29 10:40:50;;;;;;;;;3.50;3.50;;;;;11.73;93.37;100053.44;5035258;28;45453;-75
2021/12/29 10:43:18;;;;;;;;;4.25;1.25;;;;;11.79;93.58;100060.31;5048436;28;45417;-78
2021/12/29 10:45:46;;;;;;;;;1.25;1.00;;;;;11.86;93.43;100059.19;5037968;28;45334;-76
2021/12/29 10:48:24;;;;;;;;;1.25;1.25;;;;;11.90;93.76;100062.59;5025865;28;45450;-77
2021/12/29 10:51:07;;;;;;;;;1.00;1.00;;;;;11.96;93.97;100056.28;5034952;28;45592;-76
2021/12/29 10:53:34;;;;;;;;;0.00;0.00;;;;;12.00;94.93;100066.69;5026605;28;45323;-76
2021/12/29 10:56:02;;;;;;;;;0.00;0.00;;;;;12.07;95.85;100062.06;5040444;28;45530;-75
2021/12/29 10:58:29;;;;;;;;;0.00;0.00;;;;;12.16;95.98;100066.16;5041740;28;46537;-76
2021/12/29 11:01:06;;;;;;;;;0.00;0.00;;;;;12.26;96.52;100071.09;5053497;28;45514;-76
2021/12/29 11:03:33;;;;;;;;;0.00;0.00;;;;;12.28;96.40;100071.03;5048114;28;45570;-76
2021/12/29 11:06:02;;;;;;;;;0.00;0.00;;;;;12.38;97.33;100071.59;5027884;28;45528;-76
2021/12/29 11:08:48;;;;;;;;;0.75;0.00;;;;;12.46;97.11;100079.28;5036039;28;45447;-78
2021/12/29 11:11:14;;;;;;;;;0.00;0.00;;;;;12.50;97.01;100071.16;5044879;28;45378;-79
2021/12/29 11:13:41;;;;;;;;;0.00;0.00;;;;;12.56;97.12;100075.38;5040786;28;45453;-77
2021/12/29 11:16:06;;;;;;;;;0.00;0.00;;;;;12.62;97.48;100064.56;5034940;28;45404;-76
2021/12/29 11:18:48;;;;;;;;;0.00;0.00;;;;;12.72;97.12;100076.56;5034960;28;46336;-77
2021/12/29 11:21:29;;;;;;;;;0.00;0.00;;;;;12.82;96.80;100066.47;5038195;28;45406;-79
2021/12/29 11:23:55;;;;;;;;;0.00;0.00;;;;;12.86;95.87;100068.09;5036918;28;45504;-78
2021/12/29 11:26:31;;;;;;;;;0.00;0.00;;;;;13.00;96.26;100074.63;5033830;28;45327;-80
2021/12/29 11:29:04;;;;;;;;;0.00;0.00;;;;;13.06;95.17;100074.44;5034047;28;46708;-78
2021/12/29 11:31:36;;;;;;;;;0.00;0.00;;;;;13.09;95.11;100076.97;5049131;28;45446;-79
2021/12/29 11:34:16;;;;;;;;;0.00;0.00;;;;;13.15;95.19;100074.94;5055075;28;45535;-79